Bella Vista, Arkansas
Current Conditions -  °F | °C
As of 7:15 AM on Friday 31 Oct 2014 (Local Time) from KVBT Reporting Station
Broken Clouds Broken Clouds  
Wind Chill: 39°   Ceiling: 2200
Heat Index: 46°   Visibility: 10mi
Dew Point: 37°   Wind: 18mph
Humidity: 71%   Direction: 10°N
Pressure: 30.25"   Gusts: 24mph
Location:  36.48°N, 94.25°W
Report Text: KVBT 311215Z AUTO 01016G21KT 10SM BKN022 08/03 A3025 RMK AO1
Loading
Personal Weather Stations






























Interactive Weather Map New forecast layout! Learn more

10-Day Weather Forecast

Advertisements
Track Severe Weather on mobile